Time;durP1;ratioP1;P1;durP2;ratioP2;P2;SDS_P1;SDS_P2;PMS_P1;PMS_P2;Temp;Humidity;BMP_temperature;BMP_pressure;BME280_temperature;BME280_humidity;BME280_pressure;Samples;Min_cycle;Max_cycle;Signal;HPM_P1;HPM_P2
2023/04/27 00:01:36;;;;;;;6.93;2.97;;;;;;;;;;5082087;28;20213;-63
2023/04/27 00:04:03;;;;;;;7.10;3.17;;;;;;;;;;5082276;28;20242;-63
2023/04/27 00:06:28;;;;;;;5.32;3.10;;;;;;;;;;5063413;28;20226;-63
2023/04/27 00:08:53;;;;;;;6.63;3.30;;;;;;;;;;5054298;28;20244;-63
2023/04/27 00:11:19;;;;;;;6.27;3.10;;;;;;;;;;5069092;28;20226;-63
2023/04/27 00:13:44;;;;;;;9.68;3.33;;;;;;;;;;5064794;28;20222;-63
2023/04/27 00:16:09;;;;;;;9.83;3.10;;;;;;;;;;5082862;28;20209;-63
2023/04/27 00:18:35;;;;;;;7.40;3.73;;;;;;;;;;5072222;28;20750;-63
2023/04/27 00:21:00;;;;;;;7.10;3.10;;;;;;;;;;5071627;28;20731;-62
2023/04/27 00:23:26;;;;;;;7.72;3.53;;;;;;;;;;5071285;28;20210;-63
2023/04/27 00:25:52;;;;;;;7.05;3.25;;;;;;;;;;5071945;28;20218;-63
2023/04/27 00:28:17;;;;;;;7.70;3.20;;;;;;;;;;5071589;28;20263;-63
2023/04/27 00:30:43;;;;;;;13.13;3.93;;;;;;;;;;5071297;28;20217;-64
2023/04/27 00:33:09;;;;;;;8.32;3.25;;;;;;;;;;5071438;28;20206;-63
2023/04/27 00:35:34;;;;;;;8.00;3.53;;;;;;;;;;5071922;28;20225;-63
2023/04/27 00:37:59;;;;;;;6.28;3.15;;;;;;;;;;5071157;28;20214;-63
2023/04/27 00:40:25;;;;;;;8.20;3.23;;;;;;;;;;5071282;28;20245;-63
2023/04/27 00:42:50;;;;;;;11.23;3.37;;;;;;;;;;5070456;28;20206;-63
2023/04/27 00:45:15;;;;;;;6.10;3.00;;;;;;;;;;5070650;28;20310;-63
2023/04/27 00:47:41;;;;;;;7.80;3.22;;;;;;;;;;5071683;28;20713;-63
2023/04/27 00:50:09;;;;;;;7.60;3.50;;;;;;;;;;5083225;28;20279;-63
2023/04/27 00:52:35;;;;;;;7.00;3.20;;;;;;;;;;5091780;28;20233;-63
2023/04/27 00:55:00;;;;;;;6.27;3.30;;;;;;;;;;5090448;28;20271;-63
2023/04/27 00:57:26;;;;;;;8.18;3.25;;;;;;;;;;5089230;28;20206;-63
2023/04/27 00:59:51;;;;;;;10.30;3.50;;;;;;;;;;5090241;28;20563;-63
2023/04/27 01:02:17;;;;;;;7.57;3.30;;;;;;;;;;5091072;28;20210;-63
2023/04/27 01:04:43;;;;;;;9.20;3.60;;;;;;;;;;5090990;28;20548;-63
2023/04/27 01:07:08;;;;;;;7.87;3.40;;;;;;;;;;5053802;28;20251;-63
2023/04/27 01:09:33;;;;;;;8.57;3.80;;;;;;;;;;5063118;28;20233;-63
2023/04/27 01:11:59;;;;;;;7.33;3.50;;;;;;;;;;5090502;28;20692;-63
2023/04/27 01:14:24;;;;;;;6.95;3.53;;;;;;;;;;5088998;28;20673;-63
2023/04/27 01:16:50;;;;;;;6.30;3.60;;;;;;;;;;5076679;28;20225;-63
2023/04/27 01:19:16;;;;;;;11.37;4.00;;;;;;;;;;5088444;28;20197;-63
2023/04/27 01:21:41;;;;;;;8.03;3.90;;;;;;;;;;5077565;28;20209;-63
2023/04/27 01:24:06;;;;;;;7.33;3.60;;;;;;;;;;5073000;28;20237;-63
2023/04/27 01:26:32;;;;;;;8.37;3.57;;;;;;;;;;5072803;28;20218;-63
2023/04/27 01:28:57;;;;;;;7.17;3.40;;;;;;;;;;5070967;28;20673;-63
2023/04/27 01:31:22;;;;;;;6.73;3.67;;;;;;;;;;5070342;28;20572;-63
2023/04/27 01:33:48;;;;;;;6.93;3.43;;;;;;;;;;5070086;28;20238;-63
2023/04/27 01:36:13;;;;;;;8.50;3.70;;;;;;;;;;5069026;28;20268;-63
2023/04/27 01:38:38;;;;;;;7.10;3.75;;;;;;;;;;5070478;28;20587;-63
2023/04/27 01:41:04;;;;;;;7.85;3.42;;;;;;;;;;5069305;28;20229;-63
2023/04/27 01:43:30;;;;;;;7.13;3.70;;;;;;;;;;5070661;28;20271;-63
2023/04/27 01:45:55;;;;;;;6.63;3.40;;;;;;;;;;5070602;28;20630;-63
2023/04/27 01:48:20;;;;;;;6.77;3.40;;;;;;;;;;5069363;28;20226;-63
2023/04/27 01:50:46;;;;;;;7.37;3.57;;;;;;;;;;5070417;28;20217;-63
2023/04/27 01:53:11;;;;;;;8.10;3.60;;;;;;;;;;5069903;28;20264;-63
2023/04/27 01:55:36;;;;;;;7.63;3.43;;;;;;;;;;5068321;28;20633;-63
2023/04/27 01:58:02;;;;;;;5.43;3.50;;;;;;;;;;5070047;28;20216;-63
2023/04/27 02:00:27;;;;;;;8.27;3.60;;;;;;;;;;5068127;28;20214;-63
2023/04/27 02:02:53;;;;;;;7.27;3.83;;;;;;;;;;5070645;28;20210;-63
2023/04/27 02:05:18;;;;;;;8.27;3.37;;;;;;;;;;5073584;28;20285;-63
2023/04/27 02:07:44;;;;;;;8.77;3.90;;;;;;;;;;5088347;28;20241;-63
2023/04/27 02:10:09;;;;;;;9.80;4.00;;;;;;;;;;5062738;28;20238;-63
2023/04/27 02:12:35;;;;;;;6.00;3.50;;;;;;;;;;5060572;28;20268;-64
2023/04/27 02:15:02;;;;;;;7.87;3.60;;;;;;;;;;5059765;28;20237;-63
2023/04/27 02:17:28;;;;;;;8.32;3.65;;;;;;;;;;5062649;28;20519;-63
2023/04/27 02:19:53;;;;;;;7.47;3.85;;;;;;;;;;5060148;28;20297;-63
2023/04/27 02:22:18;;;;;;;9.90;3.92;;;;;;;;;;5059107;28;20249;-63
2023/04/27 02:24:43;;;;;;;9.03;3.60;;;;;;;;;;5053982;28;20215;-63
2023/04/27 02:27:09;;;;;;;6.67;3.80;;;;;;;;;;5052170;28;20577;-63
2023/04/27 02:29:37;;;;;;;7.20;3.90;;;;;;;;;;5051729;28;20233;-64
2023/04/27 02:32:03;;;;;;;8.25;4.03;;;;;;;;;;5078425;28;20205;-63
2023/04/27 02:34:28;;;;;;;7.53;3.73;;;;;;;;;;5080641;28;20617;-63
2023/04/27 02:36:53;;;;;;;7.13;3.83;;;;;;;;;;5075152;28;20217;-63
2023/04/27 02:39:18;;;;;;;6.27;3.87;;;;;;;;;;5064117;28;20613;-63
2023/04/27 02:41:44;;;;;;;7.43;3.57;;;;;;;;;;5064218;28;20213;-63
2023/04/27 02:44:09;;;;;;;8.03;3.40;;;;;;;;;;5063015;28;20218;-63
2023/04/27 02:46:34;;;;;;;8.40;4.07;;;;;;;;;;5067451;28;20685;-63
2023/04/27 02:48:59;;;;;;;7.57;3.40;;;;;;;;;;5076823;28;20217;-63
2023/04/27 02:51:25;;;;;;;8.48;3.75;;;;;;;;;;5075210;28;20202;-63
2023/04/27 02:53:51;;;;;;;7.73;3.23;;;;;;;;;;5081004;28;20214;-63
2023/04/27 02:56:17;;;;;;;11.33;4.20;;;;;;;;;;5082389;28;20687;-63
2023/04/27 02:58:43;;;;;;;6.77;3.63;;;;;;;;;;5083145;28;20221;-63
2023/04/27 03:01:08;;;;;;;9.43;3.77;;;;;;;;;;5083682;28;20220;-63
2023/04/27 03:03:34;;;;;;;6.77;3.13;;;;;;;;;;5083762;28;20288;-63
2023/04/27 03:06:00;;;;;;;6.63;3.50;;;;;;;;;;5073816;28;20230;-63
2023/04/27 03:08:25;;;;;;;5.33;3.53;;;;;;;;;;5061057;28;20327;-63
2023/04/27 03:10:50;;;;;;;8.60;3.67;;;;;;;;;;5055801;28;20234;-63
2023/04/27 03:13:15;;;;;;;6.43;3.70;;;;;;;;;;5075779;28;20938;-63
2023/04/27 03:15:41;;;;;;;8.02;3.63;;;;;;;;;;5073608;28;20237;-63
2023/04/27 03:18:06;;;;;;;8.57;3.80;;;;;;;;;;5062592;28;20225;-63
2023/04/27 03:20:31;;;;;;;6.63;3.87;;;;;;;;;;5069697;28;20217;-63
2023/04/27 03:22:57;;;;;;;6.77;3.70;;;;;;;;;;5091937;28;20671;-63
2023/04/27 03:25:22;;;;;;;8.37;4.00;;;;;;;;;;5084627;28;20214;-63
2023/04/27 03:27:47;;;;;;;6.43;3.65;;;;;;;;;;5073139;28;20279;-63
2023/04/27 03:30:13;;;;;;;9.80;3.73;;;;;;;;;;5072568;28;20283;-63
2023/04/27 03:32:38;;;;;;;7.40;3.53;;;;;;;;;;5072387;28;20745;-63
2023/04/27 03:35:03;;;;;;;8.13;3.43;;;;;;;;;;5072711;28;20207;-62
2023/04/27 03:37:29;;;;;;;9.33;3.80;;;;;;;;;;5072942;28;20218;-63
2023/04/27 03:39:54;;;;;;;5.63;3.60;;;;;;;;;;5072082;28;20203;-63
2023/04/27 03:42:19;;;;;;;8.50;3.90;;;;;;;;;;5065553;28;20287;-63
2023/04/27 03:44:45;;;;;;;7.53;3.80;;;;;;;;;;5063313;28;20226;-63
2023/04/27 03:47:10;;;;;;;6.63;3.50;;;;;;;;;;5060471;28;20796;-63
2023/04/27 03:49:35;;;;;;;7.17;4.30;;;;;;;;;;5063089;28;20210;-63
2023/04/27 03:52:01;;;;;;;7.00;3.90;;;;;;;;;;5080892;28;20316;-62
2023/04/27 03:54:26;;;;;;;6.80;3.40;;;;;;;;;;5074880;28;20214;-62
2023/04/27 03:56:51;;;;;;;6.77;3.93;;;;;;;;;;5075360;28;20214;-63
2023/04/27 03:59:17;;;;;;;7.17;4.03;;;;;;;;;;5074745;28;20246;-63
2023/04/27 04:01:42;;;;;;;6.37;3.73;;;;;;;;;;5079668;28;20540;-62
2023/04/27 04:04:07;;;;;;;7.63;3.43;;;;;;;;;;5082264;28;20278;-62
2023/04/27 04:06:32;;;;;;;9.27;4.30;;;;;;;;;;5068621;28;20768;-63
2023/04/27 04:08:58;;;;;;;8.87;3.70;;;;;;;;;;5064172;28;20229;-62
2023/04/27 04:11:23;;;;;;;8.30;4.17;;;;;;;;;;5062296;28;20245;-62
2023/04/27 04:13:48;;;;;;;11.07;3.93;;;;;;;;;;5061006;28;20221;-62
2023/04/27 04:16:14;;;;;;;7.67;4.10;;;;;;;;;;5067652;28;20309;-62
2023/04/27 04:18:39;;;;;;;12.80;4.20;;;;;;;;;;5055059;28;20217;-63
2023/04/27 04:21:05;;;;;;;6.87;4.30;;;;;;;;;;5054444;28;20716;-63
2023/04/27 04:23:31;;;;;;;9.73;3.93;;;;;;;;;;5058638;28;20218;-63
2023/04/27 04:25:56;;;;;;;8.30;4.33;;;;;;;;;;5063323;28;20668;-63
2023/04/27 04:28:22;;;;;;;9.23;4.20;;;;;;;;;;5061312;28;20633;-63
2023/04/27 04:30:48;;;;;;;9.67;3.80;;;;;;;;;;5077442;28;20305;-63
2023/04/27 04:33:13;;;;;;;11.23;4.60;;;;;;;;;;5061940;28;20283;-63
2023/04/27 04:35:38;;;;;;;6.77;4.10;;;;;;;;;;5065671;28;20695;-63
2023/04/27 04:38:04;;;;;;;8.33;4.43;;;;;;;;;;5079958;28;20205;-63
2023/04/27 04:40:30;;;;;;;7.33;4.20;;;;;;;;;;5074601;28;20220;-63
2023/04/27 04:42:55;;;;;;;10.67;4.07;;;;;;;;;;5072541;28;20741;-63
2023/04/27 04:45:21;;;;;;;7.90;3.97;;;;;;;;;;5072345;28;20690;-63
2023/04/27 04:47:46;;;;;;;9.47;3.80;;;;;;;;;;5062695;28;20226;-64
2023/04/27 04:50:11;;;;;;;9.77;3.93;;;;;;;;;;5061132;28;20214;-63
2023/04/27 04:52:37;;;;;;;8.30;4.10;;;;;;;;;;5061645;28;20198;-63
2023/04/27 04:55:02;;;;;;;7.38;4.25;;;;;;;;;;5061441;28;20618;-63
2023/04/27 04:57:29;;;;;;;8.88;4.10;;;;;;;;;;5060647;28;20219;-63
2023/04/27 04:59:54;;;;;;;7.28;3.63;;;;;;;;;;5076648;28;20206;-63
2023/04/27 05:02:19;;;;;;;5.82;3.80;;;;;;;;;;5054238;28;20279;-63
2023/04/27 05:04:45;;;;;;;5.35;3.85;;;;;;;;;;5053307;28;20222;-64
2023/04/27 05:07:10;;;;;;;8.35;4.63;;;;;;;;;;5053743;28;20448;-64
2023/04/27 05:09:36;;;;;;;12.05;5.30;;;;;;;;;;5060831;28;20234;-64
2023/04/27 05:12:01;;;;;;;8.57;4.80;;;;;;;;;;5060270;28;20225;-63
2023/04/27 05:14:26;;;;;;;9.43;5.10;;;;;;;;;;5061255;28;20658;-64
2023/04/27 05:16:52;;;;;;;7.43;4.40;;;;;;;;;;5059875;28;20235;-64
2023/04/27 05:19:19;;;;;;;8.93;4.78;;;;;;;;;;5079508;28;20209;-64
2023/04/27 05:21:44;;;;;;;10.48;4.82;;;;;;;;;;5073207;28;20264;-63
2023/04/27 05:24:10;;;;;;;9.32;4.97;;;;;;;;;;5056836;28;20273;-63
2023/04/27 05:26:35;;;;;;;10.05;5.15;;;;;;;;;;5054491;28;20242;-63
2023/04/27 05:29:00;;;;;;;11.57;6.00;;;;;;;;;;5062010;28;20267;-62
2023/04/27 05:31:26;;;;;;;15.68;6.55;;;;;;;;;;5069662;28;20696;-63
2023/04/27 05:33:51;;;;;;;12.02;6.82;;;;;;;;;;5070543;28;20437;-65
2023/04/27 05:36:16;;;;;;;8.88;5.95;;;;;;;;;;5070430;28;20267;-64
2023/04/27 05:38:42;;;;;;;12.70;7.10;;;;;;;;;;5068774;28;20534;-63
2023/04/27 05:41:07;;;;;;;10.53;6.60;;;;;;;;;;5069962;28;20920;-63
2023/04/27 05:43:33;;;;;;;10.90;6.70;;;;;;;;;;5070455;28;20227;-65
2023/04/27 05:45:59;;;;;;;11.23;6.82;;;;;;;;;;5069717;28;20604;-65
2023/04/27 05:48:24;;;;;;;11.93;6.97;;;;;;;;;;5078888;28;20341;-65
2023/04/27 05:50:57;;;;;;;12.07;6.47;;;;;;;;;;5082447;28;20258;-65
2023/04/27 05:53:22;;;;;;;10.02;6.32;;;;;;;;;;5080693;28;20211;-65
2023/04/27 05:55:48;;;;;;;12.40;6.82;;;;;;;;;;5084725;28;20208;-65
2023/04/27 05:58:13;;;;;;;11.43;6.25;;;;;;;;;;5082432;28;20212;-65
2023/04/27 06:00:38;;;;;;;11.13;5.65;;;;;;;;;;5080005;28;20209;-66
2023/04/27 06:03:03;;;;;;;8.88;5.70;;;;;;;;;;5083805;28;20742;-66
2023/04/27 06:05:29;;;;;;;11.52;6.32;;;;;;;;;;5082230;28;20206;-64
2023/04/27 06:07:54;;;;;;;9.67;6.30;;;;;;;;;;5084814;28;20429;-64
2023/04/27 06:10:19;;;;;;;11.63;5.95;;;;;;;;;;5080594;28;20252;-65
2023/04/27 06:12:45;;;;;;;12.35;6.22;;;;;;;;;;5082105;28;20198;-66
2023/04/27 06:15:10;;;;;;;8.55;5.53;;;;;;;;;;5080560;28;20670;-65
2023/04/27 06:17:36;;;;;;;12.95;5.05;;;;;;;;;;5078255;28;20229;-65
2023/04/27 06:20:05;;;;;;;9.73;5.03;;;;;;;;;;5082093;28;20202;-64
2023/04/27 06:22:31;;;;;;;11.43;5.10;;;;;;;;;;5082102;28;20310;-65
2023/04/27 06:24:56;;;;;;;7.57;4.63;;;;;;;;;;5081345;28;20280;-66
2023/04/27 06:27:21;;;;;;;9.02;4.72;;;;;;;;;;5078156;28;20499;-65
2023/04/27 06:29:46;;;;;;;12.30;5.00;;;;;;;;;;5079107;28;20220;-65
2023/04/27 06:32:12;;;;;;;11.30;4.18;;;;;;;;;;5069557;28;20206;-65
2023/04/27 06:34:37;;;;;;;9.70;5.10;;;;;;;;;;5069769;28;20218;-65
2023/04/27 06:37:02;;;;;;;10.23;4.60;;;;;;;;;;5063385;28;20218;-65
2023/04/27 06:39:28;;;;;;;10.20;4.60;;;;;;;;;;5071689;28;20208;-65
2023/04/27 06:41:53;;;;;;;9.35;4.97;;;;;;;;;;5089454;28;20692;-65
2023/04/27 06:44:18;;;;;;;9.80;4.93;;;;;;;;;;5088403;28;20214;-64
2023/04/27 06:46:43;;;;;;;12.15;4.82;;;;;;;;;;5089991;28;20288;-65
2023/04/27 06:49:09;;;;;;;8.82;4.65;;;;;;;;;;5079424;28;20198;-65
2023/04/27 06:51:34;;;;;;;9.57;4.70;;;;;;;;;;5079140;28;20541;-66
2023/04/27 06:54:00;;;;;;;8.00;4.20;;;;;;;;;;5084234;28;20680;-65
2023/04/27 06:56:25;;;;;;;7.60;4.47;;;;;;;;;;5079660;28;20668;-66
2023/04/27 06:58:50;;;;;;;8.50;4.70;;;;;;;;;;5081444;28;20194;-65
2023/04/27 07:01:16;;;;;;;11.65;4.45;;;;;;;;;;5081543;28;20214;-65
2023/04/27 07:03:41;;;;;;;7.82;4.20;;;;;;;;;;5081778;28;20198;-65
2023/04/27 07:06:06;;;;;;;9.23;4.25;;;;;;;;;;5077463;28;20534;-65
2023/04/27 07:08:32;;;;;;;6.13;3.60;;;;;;;;;;5082987;28;20535;-65
2023/04/27 07:10:57;;;;;;;8.80;4.07;;;;;;;;;;5089113;28;20295;-66
2023/04/27 07:13:22;;;;;;;11.15;4.28;;;;;;;;;;5089398;28;20216;-66
2023/04/27 07:15:52;;;;;;;8.32;3.70;;;;;;;;;;5086192;28;20248;-65
2023/04/27 07:18:18;;;;;;;9.27;3.95;;;;;;;;;;5068509;28;20728;-65
2023/04/27 07:20:43;;;;;;;9.02;4.35;;;;;;;;;;5067975;28;20293;-65
2023/04/27 07:23:08;;;;;;;8.80;3.40;;;;;;;;;;5072354;28;20674;-65
2023/04/27 07:25:34;;;;;;;7.13;3.30;;;;;;;;;;5072803;28;20207;-65
2023/04/27 07:27:59;;;;;;;7.10;3.00;;;;;;;;;;5073258;28;20226;-65
2023/04/27 07:30:25;;;;;;;5.65;2.50;;;;;;;;;;5072699;28;20214;-65
2023/04/27 07:32:53;;;;;;;7.05;2.78;;;;;;;;;;5072412;28;20234;-65
2023/04/27 07:35:18;;;;;;;4.55;1.92;;;;;;;;;;5072662;28;20210;-65
2023/04/27 07:37:44;;;;;;;5.50;2.22;;;;;;;;;;5073100;28;20302;-65
2023/04/27 07:40:13;;;;;;;6.88;2.60;;;;;;;;;;5071995;28;20281;-65
2023/04/27 07:42:40;;;;;;;8.18;3.00;;;;;;;;;;5071647;28;20210;-65
2023/04/27 07:45:06;;;;;;;8.15;2.60;;;;;;;;;;5071872;28;20301;-65
2023/04/27 07:47:32;;;;;;;6.60;2.85;;;;;;;;;;5072914;28;20642;-66
2023/04/27 07:49:57;;;;;;;6.70;3.13;;;;;;;;;;5072788;28;20725;-65
2023/04/27 07:52:22;;;;;;;7.70;2.65;;;;;;;;;;5071697;28;20298;-62
2023/04/27 07:54:48;;;;;;;7.47;2.90;;;;;;;;;;5072954;28;20695;-62
2023/04/27 07:57:13;;;;;;;5.25;2.60;;;;;;;;;;5070988;28;20217;-65
2023/04/27 07:59:38;;;;;;;6.72;2.88;;;;;;;;;;5072006;28;20214;-67
2023/04/27 08:02:04;;;;;;;4.80;2.70;;;;;;;;;;5072368;28;20673;-69
2023/04/27 08:04:29;;;;;;;8.00;3.08;;;;;;;;;;5072580;28;20218;-66
2023/04/27 08:06:54;;;;;;;5.97;2.80;;;;;;;;;;5080158;28;20214;-67
2023/04/27 08:09:20;;;;;;;8.55;3.20;;;;;;;;;;5080913;28;20253;-66
2023/04/27 08:11:45;;;;;;;7.85;2.80;;;;;;;;;;5071234;28;20210;-67
2023/04/27 08:14:12;;;;;;;6.28;2.97;;;;;;;;;;5071489;28;20554;-66
2023/04/27 08:16:39;;;;;;;7.72;3.25;;;;;;;;;;5082952;28;20320;-64
2023/04/27 08:19:05;;;;;;;6.28;2.90;;;;;;;;;;5092132;28;20228;-63
2023/04/27 08:21:31;;;;;;;4.22;2.60;;;;;;;;;;5091648;28;20210;-64
2023/04/27 08:23:57;;;;;;;5.07;2.78;;;;;;;;;;5092358;28;20263;-63
2023/04/27 08:26:22;;;;;;;8.73;3.00;;;;;;;;;;5090902;28;20226;-64
2023/04/27 08:28:48;;;;;;;6.88;2.55;;;;;;;;;;5091639;28;20761;-64
2023/04/27 08:31:13;;;;;;;5.85;2.70;;;;;;;;;;5091874;28;20216;-64
2023/04/27 08:33:38;;;;;;;7.07;2.58;;;;;;;;;;5090095;28;20209;-63
2023/04/27 08:36:04;;;;;;;6.00;2.40;;;;;;;;;;5089933;28;20210;-63
2023/04/27 08:38:29;;;;;;;4.90;2.40;;;;;;;;;;5092398;28;20235;-63
2023/04/27 08:40:54;;;;;;;5.13;2.53;;;;;;;;;;5074804;28;20297;-64
2023/04/27 08:43:20;;;;;;;5.07;2.17;;;;;;;;;;5070677;28;20260;-64
2023/04/27 08:45:46;;;;;;;4.78;2.08;;;;;;;;;;5071768;28;20210;-64
2023/04/27 08:48:12;;;;;;;5.75;2.25;;;;;;;;;;5053375;28;20221;-63
2023/04/27 08:50:37;;;;;;;6.25;2.38;;;;;;;;;;5071049;28;20214;-64
2023/04/27 08:53:02;;;;;;;4.90;2.85;;;;;;;;;;5069873;28;20712;-63
2023/04/27 08:55:28;;;;;;;9.20;2.80;;;;;;;;;;5070875;28;20249;-64
2023/04/27 08:57:54;;;;;;;7.38;2.50;;;;;;;;;;5070402;28;20206;-64
2023/04/27 09:00:20;;;;;;;5.45;2.63;;;;;;;;;;5071142;28;20238;-64
2023/04/27 09:02:45;;;;;;;4.53;2.40;;;;;;;;;;5070589;28;20245;-64
2023/04/27 09:05:17;;;;;;;6.03;2.30;;;;;;;;;;5069740;28;20248;-63
2023/04/27 09:07:43;;;;;;;8.18;2.30;;;;;;;;;;5071265;28;20230;-64
2023/04/27 09:10:09;;;;;;;7.25;2.50;;;;;;;;;;5080694;28;20245;-64
2023/04/27 09:12:34;;;;;;;4.32;2.30;;;;;;;;;;5091513;28;20240;-64
2023/04/27 09:15:02;;;;;;;6.00;2.70;;;;;;;;;;5090173;28;20220;-64
2023/04/27 09:17:29;;;;;;;6.00;2.33;;;;;;;;;;5072834;28;20229;-65
2023/04/27 09:20:07;;;;;;;5.32;2.30;;;;;;;;;;5071119;28;20226;-64
2023/04/27 09:22:41;;;;;;;6.82;2.70;;;;;;;;;;5070712;28;20229;-64
2023/04/27 09:25:06;;;;;;;5.13;3.08;;;;;;;;;;5069854;28;20658;-63
2023/04/27 09:27:32;;;;;;;5.55;2.80;;;;;;;;;;5071153;28;20271;-64
2023/04/27 09:29:57;;;;;;;5.63;2.78;;;;;;;;;;5070863;28;20218;-64
2023/04/27 09:32:22;;;;;;;8.05;2.72;;;;;;;;;;5069605;28;20210;-64
2023/04/27 09:34:48;;;;;;;5.32;2.90;;;;;;;;;;5071047;28;20206;-65
2023/04/27 09:37:13;;;;;;;6.10;2.88;;;;;;;;;;5069063;28;20219;-63
2023/04/27 09:39:39;;;;;;;6.40;2.80;;;;;;;;;;5068651;28;20599;-65
2023/04/27 09:42:04;;;;;;;8.27;3.30;;;;;;;;;;5052230;28;20214;-64
2023/04/27 09:44:30;;;;;;;6.03;2.60;;;;;;;;;;5070664;28;20301;-64
2023/04/27 09:46:57;;;;;;;6.32;2.50;;;;;;;;;;5069941;28;20229;-64
2023/04/27 09:49:22;;;;;;;7.72;2.80;;;;;;;;;;5070341;28;20206;-64
2023/04/27 09:51:47;;;;;;;6.30;2.90;;;;;;;;;;5068401;28;20210;-64
2023/04/27 09:54:12;;;;;;;6.47;2.72;;;;;;;;;;5068727;28;20207;-64
2023/04/27 09:56:47;;;;;;;6.82;3.30;;;;;;;;;;5070640;28;20219;-64
2023/04/27 09:59:31;;;;;;;5.35;2.50;;;;;;;;;;5067910;28;20210;-64
2023/04/27 10:01:56;;;;;;;5.90;2.67;;;;;;;;;;5070270;28;20291;-64
2023/04/27 10:04:28;;;;;;;4.38;2.50;;;;;;;;;;5068664;28;20234;-64
2023/04/27 10:06:57;;;;;;;6.18;2.38;;;;;;;;;;5085500;28;20254;-64
2023/04/27 10:09:22;;;;;;;8.63;3.03;;;;;;;;;;5083983;28;20221;-65
2023/04/27 10:11:48;;;;;;;6.18;2.85;;;;;;;;;;5070228;28;20206;-66
2023/04/27 10:14:16;;;;;;;5.00;2.80;;;;;;;;;;5062110;28;20210;-64
2023/04/27 10:16:45;;;;;;;5.90;2.72;;;;;;;;;;5081313;28;20253;-65
2023/04/27 10:19:11;;;;;;;5.20;2.45;;;;;;;;;;5090050;28;20217;-64
2023/04/27 10:21:37;;;;;;;7.75;2.97;;;;;;;;;;5088378;28;20271;-65
2023/04/27 10:24:08;;;;;;;7.22;3.40;;;;;;;;;;5089933;28;20214;-64
2023/04/27 10:26:33;;;;;;;6.53;3.05;;;;;;;;;;5090298;28;20217;-65
2023/04/27 10:29:06;;;;;;;6.45;2.53;;;;;;;;;;5089584;28;20575;-65
2023/04/27 10:31:32;;;;;;;6.72;2.92;;;;;;;;;;5089889;28;20230;-65
2023/04/27 10:34:05;;;;;;;5.07;2.75;;;;;;;;;;5089489;28;20214;-65
2023/04/27 10:36:34;;;;;;;5.20;2.45;;;;;;;;;;5088586;28;20219;-65
2023/04/27 10:38:59;;;;;;;4.55;2.83;;;;;;;;;;5088861;28;20224;-65
2023/04/27 10:41:32;;;;;;;5.18;2.80;;;;;;;;;;5068860;28;20222;-65
2023/04/27 10:43:57;;;;;;;6.15;3.20;;;;;;;;;;5068788;28;20219;-65
2023/04/27 10:46:22;;;;;;;5.00;3.00;;;;;;;;;;5068096;28;20218;-65
2023/04/27 10:48:48;;;;;;;6.72;3.15;;;;;;;;;;5069180;28;20218;-65
2023/04/27 10:51:15;;;;;;;7.10;3.35;;;;;;;;;;5069498;28;20218;-65
2023/04/27 10:53:40;;;;;;;6.32;3.10;;;;;;;;;;5068501;28;20227;-65
2023/04/27 10:56:06;;;;;;;4.47;2.97;;;;;;;;;;5068781;28;20202;-65
2023/04/27 10:58:32;;;;;;;8.57;3.10;;;;;;;;;;5073870;28;20301;-65
2023/04/27 11:00:57;;;;;;;5.80;3.60;;;;;;;;;;5073768;28;20218;-65
2023/04/27 11:03:23;;;;;;;4.45;2.95;;;;;;;;;;5071350;28;20226;-65
2023/04/27 11:05:57;;;;;;;7.20;3.50;;;;;;;;;;5073398;28;20237;-65
2023/04/27 11:08:22;;;;;;;6.38;3.13;;;;;;;;;;5073116;28;20239;-64
2023/04/27 11:10:49;;;;;;;5.90;3.35;;;;;;;;;;5090390;28;20257;-65
2023/04/27 11:13:16;;;;;;;6.70;3.35;;;;;;;;;;5092069;28;20214;-64
2023/04/27 11:15:43;;;;;;;5.20;3.70;;;;;;;;;;5091063;28;20649;-65
2023/04/27 11:18:09;;;;;;;6.47;3.35;;;;;;;;;;5072115;28;20206;-65
2023/04/27 11:20:34;;;;;;;7.28;3.65;;;;;;;;;;5073460;28;20242;-64
2023/04/27 11:23:00;;;;;;;5.00;3.20;;;;;;;;;;5071687;28;20257;-65
2023/04/27 11:25:27;;;;;;;5.47;3.28;;;;;;;;;;5073071;28;20559;-64
2023/04/27 11:27:52;;;;;;;7.13;3.80;;;;;;;;;;5071831;28;20245;-65
2023/04/27 11:30:18;;;;;;;5.05;3.50;;;;;;;;;;5072243;28;20207;-64
2023/04/27 11:32:43;;;;;;;6.40;3.30;;;;;;;;;;5073118;28;20203;-65
2023/04/27 11:35:09;;;;;;;6.07;3.20;;;;;;;;;;5072753;28;20297;-64
2023/04/27 11:37:34;;;;;;;6.07;3.33;;;;;;;;;;5071171;28;20576;-65
2023/04/27 11:40:00;;;;;;;9.38;3.60;;;;;;;;;;5072842;28;20678;-65
2023/04/27 11:42:27;;;;;;;7.82;3.20;;;;;;;;;;5072655;28;20218;-65
2023/04/27 11:44:53;;;;;;;5.72;2.85;;;;;;;;;;5070877;28;20626;-65
2023/04/27 11:47:18;;;;;;;5.03;3.10;;;;;;;;;;5071057;28;20226;-65
2023/04/27 11:49:46;;;;;;;6.82;3.40;;;;;;;;;;5073083;28;20302;-65
2023/04/27 11:52:12;;;;;;;6.63;3.35;;;;;;;;;;5071559;28;20234;-65
2023/04/27 11:54:37;;;;;;;6.07;3.10;;;;;;;;;;5073006;28;20245;-65
2023/04/27 11:57:03;;;;;;;6.30;3.45;;;;;;;;;;5072348;28;20234;-64
2023/04/27 11:59:28;;;;;;;4.53;2.75;;;;;;;;;;5072081;28;20210;-64
2023/04/27 12:01:54;;;;;;;7.40;3.00;;;;;;;;;;5072716;28;20234;-65
2023/04/27 12:04:19;;;;;;;5.93;2.33;;;;;;;;;;5072207;28;20574;-65
2023/04/27 12:06:45;;;;;;;7.15;3.20;;;;;;;;;;5087685;28;20226;-64
2023/04/27 12:09:10;;;;;;;5.35;3.17;;;;;;;;;;5085475;28;20287;-64
2023/04/27 12:11:35;;;;;;;4.43;3.10;;;;;;;;;;5072468;28;20222;-64
2023/04/27 12:14:01;;;;;;;8.50;3.05;;;;;;;;;;5071176;28;20226;-63
2023/04/27 12:16:26;;;;;;;5.78;3.25;;;;;;;;;;5067424;28;20209;-64
2023/04/27 12:18:51;;;;;;;6.00;3.28;;;;;;;;;;5072476;28;20214;-64
2023/04/27 12:21:17;;;;;;;6.35;3.28;;;;;;;;;;5071143;28;20576;-64
2023/04/27 12:23:42;;;;;;;6.65;2.90;;;;;;;;;;5071075;28;20210;-64
2023/04/27 12:26:07;;;;;;;8.57;3.15;;;;;;;;;;5070454;28;20275;-64
2023/04/27 12:28:33;;;;;;;6.60;2.95;;;;;;;;;;5071483;28;20225;-64
2023/04/27 12:30:58;;;;;;;6.75;3.70;;;;;;;;;;5072099;28;20210;-64
2023/04/27 12:33:23;;;;;;;6.63;3.20;;;;;;;;;;5071020;28;20297;-64
2023/04/27 12:35:49;;;;;;;4.53;2.80;;;;;;;;;;5070768;28;20222;-64
2023/04/27 12:38:14;;;;;;;6.55;3.00;;;;;;;;;;5071573;28;20348;-64
2023/04/27 12:40:40;;;;;;;5.88;2.90;;;;;;;;;;5084074;28;20225;-65
2023/04/27 12:43:06;;;;;;;5.72;3.03;;;;;;;;;;5090373;28;20285;-63
2023/04/27 12:45:31;;;;;;;5.32;3.00;;;;;;;;;;5090883;28;20206;-64
2023/04/27 12:47:56;;;;;;;6.32;3.10;;;;;;;;;;5091267;28;20213;-64
2023/04/27 12:50:22;;;;;;;4.30;2.80;;;;;;;;;;5091550;28;20616;-65
2023/04/27 12:52:49;;;;;;;5.85;2.83;;;;;;;;;;5090622;28;20217;-64
2023/04/27 12:55:14;;;;;;;5.03;2.70;;;;;;;;;;5090770;28;20213;-64
2023/04/27 12:57:39;;;;;;;5.75;2.80;;;;;;;;;;5091784;28;20574;-64
2023/04/27 13:00:08;;;;;;;5.82;3.13;;;;;;;;;;5091250;28;20222;-64
2023/04/27 13:02:34;;;;;;;6.15;3.10;;;;;;;;;;5091215;28;20242;-63
2023/04/27 13:04:59;;;;;;;6.78;3.45;;;;;;;;;;5090273;28;20294;-64
2023/04/27 13:07:25;;;;;;;5.10;3.15;;;;;;;;;;5070981;28;20226;-64
2023/04/27 13:09:50;;;;;;;4.95;3.10;;;;;;;;;;5079885;28;20464;-64
2023/04/27 13:12:15;;;;;;;5.47;3.20;;;;;;;;;;5091199;28;20236;-64
2023/04/27 13:14:42;;;;;;;9.40;4.03;;;;;;;;;;5091431;28;20213;-64
2023/04/27 13:17:07;;;;;;;5.68;3.30;;;;;;;;;;5075679;28;20207;-63
2023/04/27 13:19:32;;;;;;;5.95;3.33;;;;;;;;;;5070882;28;20297;-64
2023/04/27 13:21:58;;;;;;;5.80;3.50;;;;;;;;;;5070835;28;20222;-64
2023/04/27 13:24:23;;;;;;;6.72;3.83;;;;;;;;;;5069933;28;20217;-64
2023/04/27 13:26:48;;;;;;;7.20;3.80;;;;;;;;;;5070937;28;20310;-63
2023/04/27 13:29:14;;;;;;;5.05;3.47;;;;;;;;;;5070509;28;20234;-62
2023/04/27 13:31:40;;;;;;;6.82;4.10;;;;;;;;;;5070332;28;20210;-63
2023/04/27 13:34:05;;;;;;;5.72;3.95;;;;;;;;;;5070563;28;20598;-62
2023/04/27 13:36:30;;;;;;;8.55;4.00;;;;;;;;;;5071115;28;20207;-62
2023/04/27 13:38:56;;;;;;;8.20;4.32;;;;;;;;;;5070111;28;20265;-63
2023/04/27 13:41:21;;;;;;;7.40;4.20;;;;;;;;;;5070150;28;20630;-62
2023/04/27 13:43:47;;;;;;;7.70;4.10;;;;;;;;;;5069846;28;20721;-62
2023/04/27 13:46:13;;;;;;;6.90;3.90;;;;;;;;;;5069849;28;20711;-62
2023/04/27 13:48:38;;;;;;;7.20;3.60;;;;;;;;;;5070910;28;20242;-62
2023/04/27 13:51:03;;;;;;;6.78;3.80;;;;;;;;;;5069457;28;20224;-62
2023/04/27 13:53:29;;;;;;;9.20;3.65;;;;;;;;;;5070657;28;20288;-62
2023/04/27 13:55:54;;;;;;;6.78;3.75;;;;;;;;;;5070587;28;20210;-63
2023/04/27 13:58:20;;;;;;;7.18;3.80;;;;;;;;;;5073465;28;20214;-62
2023/04/27 14:00:46;;;;;;;6.88;3.97;;;;;;;;;;5064376;28;20250;-63
2023/04/27 14:03:12;;;;;;;6.88;3.33;;;;;;;;;;5055858;28;20218;-62
2023/04/27 14:05:37;;;;;;;4.65;3.00;;;;;;;;;;5061332;28;20233;-63
2023/04/27 14:08:03;;;;;;;6.15;3.33;;;;;;;;;;5081187;28;20256;-63
2023/04/27 14:10:28;;;;;;;9.05;4.30;;;;;;;;;;5066249;28;20226;-64
2023/04/27 14:12:55;;;;;;;6.95;4.00;;;;;;;;;;5065471;28;20221;-64
2023/04/27 14:15:20;;;;;;;7.43;3.63;;;;;;;;;;5065429;28;20217;-63
2023/04/27 14:17:46;;;;;;;6.60;3.65;;;;;;;;;;5066429;28;20264;-63
2023/04/27 14:20:11;;;;;;;6.90;3.80;;;;;;;;;;5062260;28;20249;-63
2023/04/27 14:22:36;;;;;;;7.13;3.45;;;;;;;;;;5071639;28;20774;-63
2023/04/27 14:25:02;;;;;;;6.97;2.72;;;;;;;;;;5057781;28;20860;-63
2023/04/27 14:27:27;;;;;;;7.15;3.20;;;;;;;;;;5059371;28;20234;-62
2023/04/27 14:29:52;;;;;;;7.97;3.38;;;;;;;;;;5065507;28;20217;-63
2023/04/27 14:32:17;;;;;;;6.18;3.28;;;;;;;;;;5066278;28;20212;-63